Pagina principale
METAR-TAF:

METAR-TAF

Aeroporti :

Aeroporto di Francoforte sul Meno

Francoforte sul Meno, Germania

latitudine: 50-03N, longitudine: 008-36E, altezza: 111 m

Osservazione

Il bollettino è stato emesso 36 minuti fa, alle 23:20 UTC
Vento 7 kt da est/nord-est
Temperature 15°C
Umidità 48%
Pressione 1022 hPa
Visibilità 10 km o più
nessuna nube inferiore a 1500 m e nessun cumulonembo

METAR: EDDF 302320Z 06007KT CAVOK 15/04 Q1022 NOSIG

Ora: 01:56 (23:56 UTC)

Previsione

Il bollettino è stato emesso 56 minuti fa, alle 23:00 UTC
Previsione valida dal 31 alle 00 UTC al 01 alle 06 UTC
Vento 5 kt da nord-est
Visibilità 10 km o più
nessuna nube inferiore a 1500 m e nessun cumulonembo
Evoluzione graduale
dal 31 alle 05 UTC al 31 alle 07 UTC
Vento 10 kt da nord-est
Evoluzione graduale
dal 31 alle 18 UTC al 31 alle 20 UTC
Vento 5 kt da nord-est

TAF: EDDF 302300Z 3100/0106 04005KT CAVOK BECMG 3105/3107 05010KT BECMG 3118/3120 05005KT

Osservazioni e previsioni meteorologiche di più di 4000 aeroporti (messaggi METAR e TAF).

Le stazioni disponibili sono rappresentate dai dischi gialli e rossi sulla carta.

Puntare il mouse per vedere il nome della stazione.

Clicca sopra per visualizzare le osservazioni e previsioni meteorologiche.

Per cambiare la mappa : fare clic sui pulsanti verdi con una croce nera per ingrandire, il pulsante verde con un trattino per diminuire, o sulla freccia verde per le mappe adiacenti.


METAR-TAF: